Time;durP1;ratioP1;P1;durP2;ratioP2;P2;SDS_P1;SDS_P2;PMS_P1;PMS_P2;Temp;Humidity;BMP_temperature;BMP_pressure;BME280_temperature;BME280_humidity;BME280_pressure;Samples;Min_cycle;Max_cycle;Signal;HPM_P1;HPM_P2
2021/09/17 00:04:41;;;;;;;4.57;2.80;;;;;;;;;;10373189;28;20041;-81
2021/09/17 00:09:42;;;;;;;5.20;2.63;;;;;;;;;;10372698;28;20463;-81
2021/09/17 00:14:42;;;;;;;5.20;2.67;;;;;;;;;;10370850;28;20117;-82
2021/09/17 00:19:43;;;;;;;5.65;2.90;;;;;;;;;;10360564;28;20046;-81
2021/09/17 00:24:43;;;;;;;13.63;3.07;;;;;;;;;;10370936;28;20034;-81
2021/09/17 00:29:44;;;;;;;6.63;2.15;;;;;;;;;;10373082;28;21089;-83
2021/09/17 00:34:44;;;;;;;6.80;2.57;;;;;;;;;;10372681;28;20470;-82
2021/09/17 00:39:44;;;;;;;5.13;2.23;;;;;;;;;;10372737;28;20428;-82
2021/09/17 00:44:45;;;;;;;4.53;2.50;;;;;;;;;;10372320;28;20053;-82
2021/09/17 00:49:46;;;;;;;2.90;2.30;;;;;;;;;;10372020;28;20468;-81
2021/09/17 00:54:46;;;;;;;8.30;2.30;;;;;;;;;;10378499;28;20026;-81
2021/09/17 00:59:47;;;;;;;4.32;2.60;;;;;;;;;;10379358;28;20038;-81
2021/09/17 01:04:48;;;;;;;5.20;2.40;;;;;;;;;;10378724;28;20378;-82
2021/09/17 01:09:48;;;;;;;3.65;2.40;;;;;;;;;;10349312;28;20034;-80
2021/09/17 01:14:50;;;;;;;4.70;2.72;;;;;;;;;;10372900;28;20385;-81
2021/09/17 01:19:50;;;;;;;3.97;2.33;;;;;;;;;;10378380;28;20033;-82
2021/09/17 01:24:50;;;;;;;3.40;2.20;;;;;;;;;;10372865;28;20464;-80
2021/09/17 01:29:52;;;;;;;3.53;2.10;;;;;;;;;;10377668;28;20026;-81
2021/09/17 01:34:52;;;;;;;2.95;1.85;;;;;;;;;;10378096;28;20427;-80
2021/09/17 01:39:53;;;;;;;9.67;2.33;;;;;;;;;;10378224;28;20030;-80
2021/09/17 01:44:53;;;;;;;5.63;2.23;;;;;;;;;;10376875;28;20046;-82
2021/09/17 01:49:53;;;;;;;4.50;2.05;;;;;;;;;;10361590;28;20551;-82
2021/09/17 01:54:54;;;;;;;2.77;1.73;;;;;;;;;;10366094;28;20022;-82
2021/09/17 01:59:54;;;;;;;2.78;2.00;;;;;;;;;;10345895;28;20979;-82
2021/09/17 02:04:55;;;;;;;4.13;2.37;;;;;;;;;;10341071;28;20381;-80
2021/09/17 02:09:55;;;;;;;7.40;2.10;;;;;;;;;;10376898;28;20467;-81
2021/09/17 02:14:56;;;;;;;3.90;2.07;;;;;;;;;;10374934;28;20060;-82
2021/09/17 02:19:57;;;;;;;5.75;1.95;;;;;;;;;;10377012;28;20456;-82
2021/09/17 02:24:58;;;;;;;2.70;1.85;;;;;;;;;;10357987;28;20049;-83
2021/09/17 02:29:58;;;;;;;2.70;1.75;;;;;;;;;;10357823;28;20025;-83
2021/09/17 02:34:59;;;;;;;2.60;1.70;;;;;;;;;;10375738;28;20112;-82
2021/09/17 02:39:59;;;;;;;3.90;2.10;;;;;;;;;;10375535;28;20574;-82
2021/09/17 02:45:00;;;;;;;6.77;2.33;;;;;;;;;;10373771;28;20061;-82
2021/09/17 02:50:00;;;;;;;3.17;2.00;;;;;;;;;;10367064;28;20991;-80
2021/09/17 02:55:02;;;;;;;2.38;1.42;;;;;;;;;;10369393;28;20392;-81
2021/09/17 03:00:08;;;;;;;4.18;2.00;;;;;;;;;;10362016;28;20042;-82
2021/09/17 03:05:09;;;;;;;6.13;2.22;;;;;;;;;;10359403;28;20461;-82
2021/09/17 03:10:10;;;;;;;2.40;1.50;;;;;;;;;;10375164;28;20029;-83
2021/09/17 03:15:11;;;;;;;2.88;1.85;;;;;;;;;;10372533;28;20029;-81
2021/09/17 03:20:11;;;;;;;4.93;1.67;;;;;;;;;;10361044;28;20037;-82
2021/09/17 03:25:12;;;;;;;4.75;1.90;;;;;;;;;;10363626;28;20088;-82
2021/09/17 03:30:13;;;;;;;3.92;1.77;;;;;;;;;;10363146;28;20138;-81
2021/09/17 03:35:13;;;;;;;3.47;1.90;;;;;;;;;;10357101;28;20090;-82
2021/09/17 03:40:13;;;;;;;9.43;2.00;;;;;;;;;;10364226;28;20120;-81
2021/09/17 03:45:14;;;;;;;5.28;1.98;;;;;;;;;;10358691;28;20045;-81
2021/09/17 03:50:14;;;;;;;4.50;1.70;;;;;;;;;;10373266;28;20145;-83
2021/09/17 03:55:15;;;;;;;4.63;1.40;;;;;;;;;;10365878;28;20837;-81
2021/09/17 04:00:15;;;;;;;7.15;2.03;;;;;;;;;;10360561;28;20084;-82
2021/09/17 04:05:16;;;;;;;1.95;1.50;;;;;;;;;;10350797;28;20026;-81
2021/09/17 04:10:17;;;;;;;2.40;1.63;;;;;;;;;;10372745;28;20057;-82
2021/09/17 04:15:18;;;;;;;6.07;1.73;;;;;;;;;;10358456;28;20489;-81
2021/09/17 04:20:18;;;;;;;2.38;1.65;;;;;;;;;;10357294;28;20036;-81
2021/09/17 04:25:19;;;;;;;2.80;1.60;;;;;;;;;;10372294;28;20076;-82
2021/09/17 04:30:19;;;;;;;3.77;1.77;;;;;;;;;;10379785;28;20122;-81
2021/09/17 04:35:20;;;;;;;2.85;1.65;;;;;;;;;;10373900;28;20475;-81
2021/09/17 04:40:20;;;;;;;1.90;1.35;;;;;;;;;;10374948;28;20040;-82
2021/09/17 04:45:21;;;;;;;3.13;1.43;;;;;;;;;;10370754;28;20038;-82
2021/09/17 04:50:21;;;;;;;3.67;1.50;;;;;;;;;;10350363;28;20033;-81
2021/09/17 04:55:21;;;;;;;5.47;1.77;;;;;;;;;;10374329;28;20045;-82
2021/09/17 05:00:22;;;;;;;3.42;1.25;;;;;;;;;;10366832;28;20453;-82
2021/09/17 05:05:23;;;;;;;3.40;1.83;;;;;;;;;;10370557;28;20137;-78
2021/09/17 05:10:24;;;;;;;3.17;1.63;;;;;;;;;;10355760;28;20382;-80
2021/09/17 05:15:25;;;;;;;3.37;1.57;;;;;;;;;;10363268;28;20041;-80
2021/09/17 05:20:25;;;;;;;5.88;1.23;;;;;;;;;;10376728;28;20792;-79
2021/09/17 05:25:27;;;;;;;3.13;1.57;;;;;;;;;;10377813;28;20033;-79
2021/09/17 05:30:27;;;;;;;4.43;1.70;;;;;;;;;;10378540;28;20034;-77
2021/09/17 05:35:28;;;;;;;4.82;2.22;;;;;;;;;;10378480;28;20030;-78
2021/09/17 05:40:28;;;;;;;2.40;1.95;;;;;;;;;;10374798;28;20034;-78
2021/09/17 05:45:29;;;;;;;4.88;4.47;;;;;;;;;;10367718;28;20101;-79
2021/09/17 05:50:29;;;;;;;4.40;3.77;;;;;;;;;;10378621;28;20032;-78
2021/09/17 05:55:30;;;;;;;4.22;1.63;;;;;;;;;;10377717;28;20030;-80
2021/09/17 06:00:30;;;;;;;2.87;1.50;;;;;;;;;;10375578;28;20034;-80
2021/09/17 06:05:30;;;;;;;2.73;1.70;;;;;;;;;;10378230;28;20029;-80
2021/09/17 06:10:31;;;;;;;3.50;1.35;;;;;;;;;;10377658;28;20455;-80
2021/09/17 06:15:31;;;;;;;2.07;1.50;;;;;;;;;;10377227;28;20109;-80
2021/09/17 06:20:32;;;;;;;2.20;1.80;;;;;;;;;;10377819;28;20469;-79
2021/09/17 06:25:32;;;;;;;5.10;1.80;;;;;;;;;;10377072;28;20444;-81
2021/09/17 06:30:33;;;;;;;3.28;1.90;;;;;;;;;;10376577;28;20026;-80
2021/09/17 06:35:34;;;;;;;9.97;1.30;;;;;;;;;;10376678;28;20034;-80
2021/09/17 06:40:35;;;;;;;4.72;1.60;;;;;;;;;;10363824;28;20490;-82
2021/09/17 06:45:35;;;;;;;1.48;1.30;;;;;;;;;;10377263;28;20080;-82
2021/09/17 06:50:37;;;;;;;2.73;1.70;;;;;;;;;;10377048;28;20428;-82
2021/09/17 06:55:37;;;;;;;3.75;1.50;;;;;;;;;;10377245;28;20447;-80
2021/09/17 07:00:38;;;;;;;8.33;2.30;;;;;;;;;;10354486;28;20038;-84
2021/09/17 07:05:39;;;;;;;16.13;2.35;;;;;;;;;;10373115;28;21016;-86
2021/09/17 07:10:40;;;;;;;20.15;2.28;;;;;;;;;;10380218;28;20026;-84
2021/09/17 07:15:40;;;;;;;6.28;2.00;;;;;;;;;;10369695;28;20025;-85
2021/09/17 07:20:41;;;;;;;4.75;2.08;;;;;;;;;;10372784;28;20034;-86
2021/09/17 07:25:41;;;;;;;6.57;1.80;;;;;;;;;;10384753;28;20109;-86
2021/09/17 07:30:42;;;;;;;8.75;1.80;;;;;;;;;;10362378;28;20105;-84
2021/09/17 07:35:42;;;;;;;7.50;2.22;;;;;;;;;;10383743;28;20113;-86
2021/09/17 07:40:43;;;;;;;10.37;2.40;;;;;;;;;;10364062;28;20030;-86
2021/09/17 07:45:43;;;;;;;4.72;1.90;;;;;;;;;;10372204;23;20607;-84
2021/09/17 07:50:44;;;;;;;16.07;2.10;;;;;;;;;;10364059;28;20034;-84
2021/09/17 07:55:44;;;;;;;8.57;1.85;;;;;;;;;;10360169;28;20459;-85
2021/09/17 08:00:45;;;;;;;11.77;2.10;;;;;;;;;;10350854;28;20062;-84
2021/09/17 08:05:45;;;;;;;5.27;1.67;;;;;;;;;;10355056;28;20029;-85
2021/09/17 08:10:45;;;;;;;11.00;2.00;;;;;;;;;;10346213;28;20452;-87
2021/09/17 08:15:46;;;;;;;5.57;1.80;;;;;;;;;;10372811;28;20440;-86
2021/09/17 08:20:50;;;;;;;5.63;1.40;;;;;;;;;;10341581;28;20042;-84
2021/09/17 08:25:51;;;;;;;5.72;1.80;;;;;;;;;;10342995;28;20457;-85
2021/09/17 08:30:52;;;;;;;5.50;1.70;;;;;;;;;;10352764;28;20119;-82
2021/09/17 08:35:52;;;;;;;6.93;1.80;;;;;;;;;;10349946;28;20041;-84
2021/09/17 08:40:54;;;;;;;11.63;1.63;;;;;;;;;;10334054;28;20109;-84
2021/09/17 08:45:54;;;;;;;2.63;1.65;;;;;;;;;;10330464;28;20038;-87
2021/09/17 08:50:58;;;;;;;4.57;1.93;;;;;;;;;;10320893;28;20034;-83
2021/09/17 08:55:59;;;;;;;4.97;1.65;;;;;;;;;;10334674;28;20975;-83
2021/09/17 09:00:59;;;;;;;4.63;2.25;;;;;;;;;;10351444;28;20038;-82
2021/09/17 09:06:14;;;;;;;3.90;1.60;;;;;;;;;;10321553;28;20027;-82
2021/09/17 09:11:19;;;;;;;4.68;1.60;;;;;;;;;;10336821;28;20018;-82
2021/09/17 09:16:19;;;;;;;2.70;1.70;;;;;;;;;;10359097;28;20033;-81
2021/09/17 09:21:27;;;;;;;5.25;2.50;;;;;;;;;;10357784;28;20034;-85
2021/09/17 09:26:28;;;;;;;14.45;2.40;;;;;;;;;;10341464;28;20030;-84
2021/09/17 09:31:39;;;;;;;4.27;1.87;;;;;;;;;;10357862;28;20026;-85
2021/09/17 09:36:40;;;;;;;3.95;1.85;;;;;;;;;;10359661;28;20466;-84
2021/09/17 09:41:40;;;;;;;4.90;1.70;;;;;;;;;;10358609;28;20082;-85
2021/09/17 09:46:42;;;;;;;3.57;1.50;;;;;;;;;;10370830;28;20176;-84
2021/09/17 09:52:09;;;;;;;3.75;1.38;;;;;;;;;;10356597;28;20022;-84
2021/09/17 09:57:09;;;;;;;4.85;2.25;;;;;;;;;;10359708;28;20034;-83
2021/09/17 10:02:11;;;;;;;3.30;1.80;;;;;;;;;;10356448;28;20494;-85
2021/09/17 10:07:11;;;;;;;6.60;1.90;;;;;;;;;;10333724;28;20093;-86
2021/09/17 10:12:13;;;;;;;4.80;1.40;;;;;;;;;;10351019;28;20161;-85
2021/09/17 10:17:20;;;;;;;2.90;1.50;;;;;;;;;;10351666;28;20494;-86
2021/09/17 10:22:32;;;;;;;6.35;1.55;;;;;;;;;;10350008;28;20105;-88
2021/09/17 10:27:33;;;;;;;3.20;1.70;;;;;;;;;;10363819;28;20500;-87
2021/09/17 10:32:36;;;;;;;2.72;1.33;;;;;;;;;;10346337;28;20030;-86
2021/09/17 10:38:00;;;;;;;3.30;1.38;;;;;;;;;;10350139;28;20057;-88
2021/09/17 10:43:09;;;;;;;3.25;1.35;;;;;;;;;;10363629;28;20054;-88
2021/09/17 10:48:11;;;;;;;5.18;1.58;;;;;;;;;;10349521;28;20134;-84
2021/09/17 10:53:13;;;;;;;2.10;1.30;;;;;;;;;;10366321;28;20034;-82
2021/09/17 10:58:26;;;;;;;4.97;1.60;;;;;;;;;;10351321;28;20018;-92
2021/09/17 11:03:36;;;;;;;1.55;1.23;;;;;;;;;;10344662;28;20038;-91
2021/09/17 11:08:47;;;;;;;4.43;1.88;;;;;;;;;;10330530;28;20030;-92
2021/09/17 11:13:48;;;;;;;5.90;1.45;;;;;;;;;;10338699;28;20038;-91
2021/09/17 11:19:00;;;;;;;4.82;1.48;;;;;;;;;;10340525;28;20022;-91
2021/09/17 11:24:01;;;;;;;3.67;1.75;;;;;;;;;;10338363;28;20434;-92
2021/09/17 11:29:09;;;;;;;2.90;1.50;;;;;;;;;;10337857;28;20034;-80
2021/09/17 11:34:13;;;;;;;3.38;1.67;;;;;;;;;;10336734;28;20029;-83
2021/09/17 11:39:25;;;;;;;2.05;1.70;;;;;;;;;;10328392;28;20471;-83
2021/09/17 11:44:47;;;;;;;3.45;1.48;;;;;;;;;;10336184;28;20069;-82
2021/09/17 11:49:48;;;;;;;7.25;2.08;;;;;;;;;;10339637;28;20450;-83
2021/09/17 11:55:03;;;;;;;2.08;1.33;;;;;;;;;;10350054;28;20030;-82
2021/09/17 12:00:08;;;;;;;5.35;1.73;;;;;;;;;;10341250;28;20089;-83
2021/09/17 12:05:17;;;;;;;1.80;1.40;;;;;;;;;;10326663;28;20440;-83
2021/09/17 12:10:26;;;;;;;3.47;1.67;;;;;;;;;;10324588;28;20034;-83
2021/09/17 12:15:29;;;;;;;3.50;1.55;;;;;;;;;;10346541;28;20062;-83
2021/09/17 12:20:42;;;;;;;3.28;1.55;;;;;;;;;;10336515;28;20042;-84
2021/09/17 12:25:44;;;;;;;5.03;1.90;;;;;;;;;;10340107;28;20038;-83
2021/09/17 12:30:45;;;;;;;3.75;1.35;;;;;;;;;;10340064;28;20046;-83
2021/09/17 12:35:50;;;;;;;4.75;1.42;;;;;;;;;;10335555;28;20090;-83
2021/09/17 12:40:53;;;;;;;6.15;1.58;;;;;;;;;;10336271;28;20038;-83
2021/09/17 12:46:12;;;;;;;4.28;1.60;;;;;;;;;;10337536;28;20042;-87
2021/09/17 12:51:25;;;;;;;3.40;1.45;;;;;;;;;;10342237;28;20057;-88
2021/09/17 12:56:26;;;;;;;2.58;1.42;;;;;;;;;;10343112;28;20030;-80
2021/09/17 13:01:26;;;;;;;2.55;1.40;;;;;;;;;;10337900;28;20037;-81
2021/09/17 13:06:27;;;;;;;5.10;1.40;;;;;;;;;;10347142;28;20069;-81
2021/09/17 13:11:27;;;;;;;1.50;1.10;;;;;;;;;;10348997;28;20110;-81
2021/09/17 13:16:28;;;;;;;2.27;1.20;;;;;;;;;;10355954;28;20026;-81
2021/09/17 13:21:28;;;;;;;5.13;1.35;;;;;;;;;;10344118;28;20851;-80
2021/09/17 13:26:28;;;;;;;2.13;1.17;;;;;;;;;;10342038;28;20030;-81
2021/09/17 13:31:29;;;;;;;12.17;1.20;;;;;;;;;;10324749;28;20018;-81
2021/09/17 13:36:29;;;;;;;2.00;1.10;;;;;;;;;;10349270;28;20037;-85
2021/09/17 13:41:30;;;;;;;2.50;1.23;;;;;;;;;;10349464;28;20100;-86
2021/09/17 13:46:30;;;;;;;3.50;1.50;;;;;;;;;;10352820;28;20026;-82
2021/09/17 13:51:31;;;;;;;1.53;1.10;;;;;;;;;;10375959;28;20422;-82
2021/09/17 13:56:31;;;;;;;2.38;1.35;;;;;;;;;;10366752;28;21109;-82
2021/09/17 14:01:32;;;;;;;3.87;1.50;;;;;;;;;;10353894;28;20164;-81
2021/09/17 14:06:33;;;;;;;3.00;1.30;;;;;;;;;;10367233;28;20818;-82
2021/09/17 14:11:34;;;;;;;2.85;1.25;;;;;;;;;;10367652;28;20030;-86
2021/09/17 14:16:34;;;;;;;2.33;1.27;;;;;;;;;;10368060;28;20035;-86
2021/09/17 14:21:35;;;;;;;2.53;1.08;;;;;;;;;;10366974;28;20030;-85
2021/09/17 14:26:39;;;;;;;2.83;1.23;;;;;;;;;;10360581;28;20052;-87
2021/09/17 14:31:40;;;;;;;1.05;0.93;;;;;;;;;;10370307;28;20027;-84
2021/09/17 14:36:40;;;;;;;3.08;1.10;;;;;;;;;;10348385;28;20466;-86
2021/09/17 14:41:42;;;;;;;1.08;1.00;;;;;;;;;;10335531;28;20050;-87
2021/09/17 14:46:43;;;;;;;3.78;0.90;;;;;;;;;;10354259;28;20034;-85
2021/09/17 14:51:43;;;;;;;2.27;1.10;;;;;;;;;;10355190;28;20030;-88
2021/09/17 14:56:45;;;;;;;6.38;1.23;;;;;;;;;;10355244;28;20535;-85
2021/09/17 15:01:46;;;;;;;5.60;1.10;;;;;;;;;;10355099;28;20061;-86
2021/09/17 15:06:47;;;;;;;2.00;0.80;;;;;;;;;;10351505;28;20515;-85
2021/09/17 15:11:47;;;;;;;4.13;1.10;;;;;;;;;;10345967;28;20026;-85
2021/09/17 15:16:48;;;;;;;6.68;1.00;;;;;;;;;;10340562;28;20105;-85
2021/09/17 15:21:48;;;;;;;2.07;1.07;;;;;;;;;;10348109;28;20038;-83
2021/09/17 15:26:49;;;;;;;2.43;1.13;;;;;;;;;;10349062;28;20057;-83
2021/09/17 15:31:49;;;;;;;3.30;1.40;;;;;;;;;;10349075;28;20026;-86
2021/09/17 15:36:49;;;;;;;3.53;1.43;;;;;;;;;;10337747;28;20535;-87
2021/09/17 15:41:50;;;;;;;2.93;1.13;;;;;;;;;;10350527;28;20511;-85
2021/09/17 15:46:50;;;;;;;5.60;1.90;;;;;;;;;;10316711;28;20034;-86
2021/09/17 15:51:51;;;;;;;8.77;1.50;;;;;;;;;;10338944;28;21077;-86
2021/09/17 15:56:51;;;;;;;11.23;1.53;;;;;;;;;;10336746;28;20439;-85
2021/09/17 16:01:52;;;;;;;9.85;1.70;;;;;;;;;;10336006;28;20460;-84
2021/09/17 16:06:53;;;;;;;6.87;1.50;;;;;;;;;;10341275;28;20029;-85
2021/09/17 16:11:54;;;;;;;7.30;1.40;;;;;;;;;;10342909;28;20492;-86
2021/09/17 16:16:54;;;;;;;3.73;1.70;;;;;;;;;;10336480;28;20050;-86
2021/09/17 16:21:55;;;;;;;5.83;1.60;;;;;;;;;;10340419;28;20991;-84
2021/09/17 16:26:55;;;;;;;4.25;1.35;;;;;;;;;;10345997;28;20110;-84
2021/09/17 16:31:55;;;;;;;4.10;1.33;;;;;;;;;;10355033;28;20079;-85
2021/09/17 16:37:16;;;;;;;3.67;1.20;;;;;;;;;;10346569;28;20468;-85
2021/09/17 16:42:18;;;;;;;4.57;1.15;;;;;;;;;;10130279;29;20188;-85
2021/09/17 16:47:18;;;;;;;5.03;1.63;;;;;;;;;;10144291;29;20076;-85
2021/09/17 16:52:19;;;;;;;3.83;1.60;;;;;;;;;;10142629;29;20141;-85
2021/09/17 16:57:19;;;;;;;4.57;1.40;;;;;;;;;;10140468;29;20456;-85
2021/09/17 17:02:20;;;;;;;7.60;1.50;;;;;;;;;;10141169;29;20456;-85
2021/09/17 17:07:21;;;;;;;5.33;1.20;;;;;;;;;;10133527;29;20048;-85
2021/09/17 17:12:21;;;;;;;2.42;1.25;;;;;;;;;;10131624;29;20224;-84
2021/09/17 17:17:22;;;;;;;1.70;1.07;;;;;;;;;;10210060;28;20418;-85
2021/09/17 17:22:22;;;;;;;5.13;1.40;;;;;;;;;;10349189;28;20030;-85
2021/09/17 17:27:23;;;;;;;2.30;1.02;;;;;;;;;;10350916;28;20026;-85
2021/09/17 17:32:23;;;;;;;3.08;1.20;;;;;;;;;;10325678;28;20085;-84
2021/09/17 17:37:24;;;;;;;2.95;1.20;;;;;;;;;;10338251;28;20125;-85
2021/09/17 17:42:24;;;;;;;1.42;0.95;;;;;;;;;;10338690;28;20042;-84
2021/09/17 17:47:25;;;;;;;8.93;1.23;;;;;;;;;;10338537;28;20086;-84
2021/09/17 17:52:25;;;;;;;2.40;1.20;;;;;;;;;;10339719;28;20816;-84
2021/09/17 17:57:26;;;;;;;2.70;1.30;;;;;;;;;;10338480;28;20104;-85
2021/09/17 18:02:27;;;;;;;3.23;0.97;;;;;;;;;;10342673;28;20466;-84
2021/09/17 18:07:27;;;;;;;4.28;1.00;;;;;;;;;;10343474;28;20507;-85
2021/09/17 18:12:28;;;;;;;1.63;1.00;;;;;;;;;;10340063;28;20065;-84
2021/09/17 18:17:28;;;;;;;2.33;0.93;;;;;;;;;;10334522;28;20090;-85
2021/09/17 18:22:32;;;;;;;3.23;1.17;;;;;;;;;;10337763;28;20036;-85
2021/09/17 18:27:32;;;;;;;7.20;1.20;;;;;;;;;;10337349;28;20038;-85
2021/09/17 18:32:33;;;;;;;1.87;1.30;;;;;;;;;;10342304;28;20030;-84
2021/09/17 18:37:33;;;;;;;3.40;1.20;;;;;;;;;;10349899;28;20026;-85
2021/09/17 18:42:34;;;;;;;1.70;1.20;;;;;;;;;;10320585;28;20051;-85
2021/09/17 18:47:34;;;;;;;1.75;1.13;;;;;;;;;;10338382;28;20033;-84
2021/09/17 18:52:35;;;;;;;1.65;1.05;;;;;;;;;;10352335;28;20379;-85
2021/09/17 18:57:35;;;;;;;8.35;1.00;;;;;;;;;;10339893;28;20033;-84
2021/09/17 19:02:36;;;;;;;3.63;1.40;;;;;;;;;;10338114;28;20057;-84
2021/09/17 19:07:36;;;;;;;16.98;1.95;;;;;;;;;;10339088;28;20444;-79
2021/09/17 19:12:36;;;;;;;9.47;1.77;;;;;;;;;;10338961;28;20022;-79
2021/09/17 19:17:37;;;;;;;23.33;2.23;;;;;;;;;;10358558;28;20058;-81
2021/09/17 19:22:38;;;;;;;7.05;1.45;;;;;;;;;;10344767;28;20113;-80
2021/09/17 19:27:39;;;;;;;9.00;1.77;;;;;;;;;;10339094;28;20149;-81
2021/09/17 19:32:42;;;;;;;8.02;1.13;;;;;;;;;;10339194;28;20514;-80
2021/09/17 19:37:44;;;;;;;4.63;1.45;;;;;;;;;;10327203;28;20488;-81
2021/09/17 19:42:45;;;;;;;29.95;1.65;;;;;;;;;;10366646;23;20059;-82
